createdAt,value
2023-04-20T00:00:08.513Z,99469.81
2023-04-20T00:01:14.404Z,99472.25
2023-04-20T00:02:16.090Z,99471.41
2023-04-20T00:03:17.963Z,99467.84
2023-04-20T00:04:19.788Z,99471.09
2023-04-20T00:05:21.344Z,99470.16
2023-04-20T00:06:22.920Z,99468.28
2023-04-20T00:07:24.499Z,99469.34
2023-04-20T00:08:26.046Z,99468.06
2023-04-20T00:09:27.788Z,99459.69
2023-04-20T00:10:29.319Z,99460.72
2023-04-20T00:11:30.869Z,99469.50
2023-04-20T00:12:32.457Z,99462.59
2023-04-20T00:13:34.007Z,99465.75
2023-04-20T00:14:35.558Z,99467.97
2023-04-20T00:15:37.505Z,99459.19
2023-04-20T00:16:39.176Z,99462.13
2023-04-20T00:17:40.851Z,99466.63
2023-04-20T00:18:42.456Z,99460.56
2023-04-20T00:19:44.011Z,99459.19
2023-04-20T00:20:45.579Z,99464.13
2023-04-20T00:21:48.321Z,99463.91
2023-04-20T00:22:49.885Z,99458.03
2023-04-20T00:23:51.976Z,99458.25
2023-04-20T00:24:53.698Z,99463.19
2023-04-20T00:25:55.312Z,99457.00
2023-04-20T00:26:56.869Z,99458.38
2023-04-20T00:27:58.434Z,99453.59
2023-04-20T00:29:00.053Z,99459.13
2023-04-20T00:30:01.763Z,99453.03
2023-04-20T00:31:06.091Z,99455.81
2023-04-20T00:32:07.639Z,99445.97
2023-04-20T00:33:09.212Z,99450.06
2023-04-20T00:34:10.790Z,99459.19
2023-04-20T00:35:12.354Z,99454.56
2023-04-20T00:36:13.918Z,99449.34
2023-04-20T00:37:15.492Z,99447.66
2023-04-20T00:38:17.076Z,99458.25
2023-04-20T00:39:18.791Z,99452.72
2023-04-20T00:40:20.425Z,99452.50
2023-04-20T00:41:22.010Z,99451.47
2023-04-20T00:42:23.667Z,99454.63
2023-04-20T00:43:26.519Z,99454.41
2023-04-20T00:44:28.106Z,99451.78
2023-04-20T00:45:29.706Z,99455.13
2023-04-20T00:46:31.289Z,99454.09
2023-04-20T00:47:32.861Z,99457.88
2023-04-20T00:48:37.078Z,99455.13
2023-04-20T00:49:38.972Z,99451.69
2023-04-20T00:50:41.143Z,99448.53
2023-04-20T00:51:42.743Z,99451.56
2023-04-20T00:52:45.143Z,99452.91
2023-04-20T00:53:46.734Z,99449.56
2023-04-20T00:54:48.584Z,99449.03
2023-04-20T00:55:51.414Z,99447.44
2023-04-20T00:56:53.910Z,99446.94
2023-04-20T00:57:55.533Z,99442.31
2023-04-20T00:58:57.103Z,99438.66
2023-04-20T00:59:58.673Z,99441.91
2023-04-20T01:01:00.392Z,99444.09
2023-04-20T01:02:01.990Z,99435.63
2023-04-20T01:03:04.856Z,99439.09
2023-04-20T01:04:06.875Z,99435.22
2023-04-20T01:05:08.708Z,99431.56
2023-04-20T01:06:10.768Z,99438.16
2023-04-20T01:07:12.392Z,99428.13
2023-04-20T01:08:13.988Z,99433.00
2023-04-20T01:09:15.854Z,99433.22
2023-04-20T01:10:17.641Z,99433.22
2023-04-20T01:11:19.292Z,99425.47
2023-04-20T01:12:20.916Z,99428.81
2023-04-20T01:13:22.539Z,99428.72
2023-04-20T01:14:24.119Z,99428.22
2023-04-20T01:15:25.833Z,99430.00
2023-04-20T01:16:27.417Z,99425.59
2023-04-20T01:17:29.083Z,99426.53
2023-04-20T01:18:41.662Z,99429.88
2023-04-20T01:19:43.293Z,99430.41
2023-04-20T01:20:44.945Z,99419.72
2023-04-20T01:21:46.548Z,99423.09
2023-04-20T01:22:50.272Z,99430.41
2023-04-20T01:23:51.867Z,99428.00
2023-04-20T01:24:53.706Z,99434.66
2023-04-20T01:25:55.259Z,99424.06
2023-04-20T01:26:56.824Z,99439.75
2023-04-20T01:27:58.389Z,99434.09
2023-04-20T01:28:59.977Z,99433.16
2023-04-20T01:30:01.548Z,99436.91
2023-04-20T01:31:07.137Z,99436.72
2023-04-20T01:32:09.463Z,99437.34
2023-04-20T01:33:11.618Z,99434.31
2023-04-20T01:34:13.161Z,99431.06
2023-04-20T01:35:14.758Z,99435.91
2023-04-20T01:36:16.420Z,99431.78
2023-04-20T01:37:19.797Z,99433.16
2023-04-20T01:38:22.792Z,99433.00
2023-04-20T01:39:24.734Z,99432.78
2023-04-20T01:40:26.308Z,99431.09
2023-04-20T01:41:27.877Z,99425.16
2023-04-20T01:42:31.442Z,99420.50
2023-04-20T01:43:35.171Z,99419.50
2023-04-20T01:44:36.779Z,99420.59
2023-04-20T01:45:38.423Z,99421.34
2023-04-20T01:46:40.261Z,99412.56
2023-04-20T01:47:42.131Z,99421.25
2023-04-20T01:48:43.715Z,99413.41
2023-04-20T01:49:45.291Z,99417.06
2023-04-20T01:50:50.800Z,99419.50
2023-04-20T01:51:52.668Z,99428.06
2023-04-20T01:52:54.259Z,99423.00
2023-04-20T01:53:55.829Z,99416.88
2023-04-20T01:54:57.395Z,99421.44
2023-04-20T01:55:59.650Z,99419.13
2023-04-20T01:57:01.260Z,99413.06
2023-04-20T01:58:02.912Z,99414.56
2023-04-20T01:59:04.538Z,99421.78
2023-04-20T02:00:06.842Z,99420.94
2023-04-20T02:01:15.731Z,99425.88
2023-04-20T02:02:17.805Z,99423.16
2023-04-20T02:03:19.497Z,99419.81
2023-04-20T02:04:22.885Z,99419.06
2023-04-20T02:05:24.640Z,99426.81
2023-04-20T02:06:26.190Z,99424.94
2023-04-20T02:07:27.753Z,99422.03
2023-04-20T02:08:29.333Z,99422.22
2023-04-20T02:09:30.889Z,99424.81
2023-04-20T02:10:32.546Z,99428.59
2023-04-20T02:11:34.085Z,99423.28
2023-04-20T02:12:35.715Z,99429.81
2023-04-20T02:13:37.288Z,99417.16
2023-04-20T02:14:38.866Z,99426.47
2023-04-20T02:15:44.223Z,99427.22
2023-04-20T02:16:47.553Z,99427.94
2023-04-20T02:17:49.157Z,99417.25
2023-04-20T02:18:50.748Z,99423.56
2023-04-20T02:19:52.300Z,99432.06
2023-04-20T02:20:53.876Z,99430.38
2023-04-20T02:21:55.516Z,99423.28
2023-04-20T02:22:57.083Z,99424.81
2023-04-20T02:23:58.648Z,99432.78
2023-04-20T02:25:02.856Z,99421.78
2023-04-20T02:26:05.048Z,99422.41
2023-04-20T02:27:06.733Z,99423.84
2023-04-20T02:28:08.440Z,99424.50
2023-04-20T02:29:13.270Z,99423.44
2023-04-20T02:30:14.920Z,99422.63
2023-04-20T02:31:17.412Z,99429.44
2023-04-20T02:32:19.887Z,99431.94
2023-04-20T02:33:24.238Z,99424.22
2023-04-20T02:34:28.288Z,99422.41
2023-04-20T02:35:31.937Z,99426.06
2023-04-20T02:36:33.565Z,99423.84
2023-04-20T02:37:35.163Z,99428.78
2023-04-20T02:38:36.723Z,99421.47
2023-04-20T02:39:38.292Z,99420.75
2023-04-20T02:40:39.999Z,99422.41
2023-04-20T02:41:41.766Z,99422.31
2023-04-20T02:42:43.329Z,99422.84
2023-04-20T02:43:46.356Z,99426.63
2023-04-20T02:44:47.935Z,99424.66
2023-04-20T02:45:50.145Z,99420.78
2023-04-20T02:46:54.454Z,99427.41
2023-04-20T02:47:58.334Z,99427.06
2023-04-20T02:49:02.103Z,99428.84
2023-04-20T02:50:06.280Z,99426.53
2023-04-20T02:51:16.046Z,99429.81
2023-04-20T02:52:19.848Z,99427.63
2023-04-20T02:53:21.617Z,99422.28
2023-04-20T02:54:31.839Z,99424.28
2023-04-20T02:55:33.737Z,99420.00
2023-04-20T02:56:40.681Z,99413.56
2023-04-20T02:57:44.659Z,99420.28
2023-04-20T02:58:46.295Z,99423.63
2023-04-20T02:59:55.931Z,99411.38
2023-04-20T03:01:10.816Z,99417.38
2023-04-20T03:02:13.406Z,99421.00
2023-04-20T03:03:15.743Z,99418.19
2023-04-20T03:04:17.802Z,99421.53
2023-04-20T03:05:27.721Z,99415.06
2023-04-20T03:06:29.368Z,99421.66
2023-04-20T03:07:32.040Z,99417.56
2023-04-20T03:08:33.727Z,99411.81
2023-04-20T03:09:46.568Z,99424.78
2023-04-20T03:10:48.240Z,99421.41
2023-04-20T03:11:53.504Z,99411.72
2023-04-20T03:13:10.220Z,99421.53
2023-04-20T03:14:33.739Z,99423.59
2023-04-20T03:15:35.457Z,99419.00
2023-04-20T03:16:42.541Z,99416.97
2023-04-20T03:17:45.019Z,99416.91
2023-04-20T03:18:46.681Z,99422.03
2023-04-20T03:19:48.241Z,99425.25
2023-04-20T03:20:49.771Z,99423.41
2023-04-20T03:21:51.430Z,99427.41
2023-04-20T03:22:53.186Z,99429.81
2023-04-20T03:23:58.159Z,99428.00
2023-04-20T03:24:59.946Z,99431.78
2023-04-20T03:26:27.698Z,99428.22
2023-04-20T03:27:47.518Z,99438.47
2023-04-20T03:28:50.685Z,99441.19
2023-04-20T03:29:59.032Z,99438.59
2023-04-20T03:31:00.630Z,99444.75
2023-04-20T03:32:04.053Z,99441.88
2023-04-20T03:33:05.923Z,99440.63
2023-04-20T03:34:07.586Z,99442.31
2023-04-20T03:35:09.650Z,99444.31
2023-04-20T03:36:11.267Z,99454.13
2023-04-20T03:37:12.865Z,99440.75
2023-04-20T03:38:14.448Z,99446.50
2023-04-20T03:39:16.261Z,99446.41
2023-04-20T03:40:18.109Z,99443.03
2023-04-20T03:41:19.707Z,99444.56
2023-04-20T03:42:21.343Z,99453.25
2023-04-20T03:43:23.496Z,99449.03
2023-04-20T03:44:25.262Z,99453.81
2023-04-20T03:45:26.886Z,99452.59
2023-04-20T03:46:28.543Z,99454.47
2023-04-20T03:47:30.241Z,99455.00
2023-04-20T03:48:32.832Z,99448.84
2023-04-20T03:49:34.462Z,99461.53
2023-04-20T03:50:36.112Z,99457.31
2023-04-20T03:51:39.283Z,99459.28
2023-04-20T03:52:40.854Z,99455.22
2023-04-20T03:53:44.368Z,99456.97
2023-04-20T03:54:47.864Z,99455.72
2023-04-20T03:55:51.112Z,99454.78
2023-04-20T03:56:55.661Z,99459.94
2023-04-20T03:57:58.273Z,99453.25
2023-04-20T03:59:01.764Z,99452.81
2023-04-20T04:00:03.772Z,99459.50
2023-04-20T04:04:07.230Z,99458.75
2023-04-20T04:06:02.637Z,99457.81
2023-04-20T04:07:09.503Z,99462.19
2023-04-20T04:10:12.089Z,99456.97
2023-04-20T04:16:23.033Z,99467.16
2023-04-20T04:19:08.935Z,99465.66
2023-04-20T04:20:36.176Z,99465.38
2023-04-20T04:21:38.846Z,99469.41
2023-04-20T04:24:21.910Z,99463.34
2023-04-20T04:25:37.616Z,99464.19
2023-04-20T04:28:29.610Z,99476.47
2023-04-20T04:31:09.244Z,99467.06
2023-04-20T04:34:56.830Z,99470.31
2023-04-20T04:38:09.323Z,99468.44
2023-04-20T04:41:46.159Z,99471.19
2023-04-20T05:04:19.110Z,99484.75
2023-04-20T05:05:21.637Z,99475.75
2023-04-20T05:06:23.256Z,99478.19
2023-04-20T05:07:24.942Z,99476.38
2023-04-20T05:08:26.516Z,99481.53
2023-04-20T05:09:28.092Z,99470.94
2023-04-20T05:10:29.715Z,99475.88
2023-04-20T05:11:31.277Z,99479.13
2023-04-20T05:12:33.100Z,99478.19
2023-04-20T05:13:35.102Z,99479.97
2023-04-20T05:14:36.805Z,99475.66
2023-04-20T05:15:38.378Z,99474.75
2023-04-20T05:16:40.090Z,99474.31
2023-04-20T05:17:41.822Z,99480.06
2023-04-20T05:18:43.482Z,99481.44
2023-04-20T05:19:45.017Z,99483.00
2023-04-20T05:20:46.585Z,99484.81
2023-04-20T05:21:48.166Z,99479.56
2023-04-20T05:22:49.701Z,99481.13
2023-04-20T05:23:51.386Z,99481.66
2023-04-20T05:24:52.909Z,99485.09
2023-04-20T05:25:54.494Z,99480.94
2023-04-20T05:26:56.067Z,99483.44
2023-04-20T05:27:57.648Z,99478.09
2023-04-20T05:28:59.229Z,99485.50
2023-04-20T05:30:16.610Z,99479.69
2023-04-20T05:31:20.956Z,99482.28
2023-04-20T05:32:22.570Z,99474.63
2023-04-20T05:33:24.987Z,99483.53
2023-04-20T05:34:26.675Z,99482.50
2023-04-20T05:35:28.228Z,99486.56
2023-04-20T05:36:30.377Z,99488.97
2023-04-20T05:37:33.579Z,99485.44
2023-04-20T05:38:35.124Z,99485.84
2023-04-20T05:39:36.696Z,99490.00
2023-04-20T05:40:38.266Z,99490.41
2023-04-20T05:41:39.798Z,99489.28
2023-04-20T05:42:41.339Z,99491.81
2023-04-20T05:43:42.907Z,99487.94
2023-04-20T05:44:44.452Z,99492.94
2023-04-20T05:45:46.696Z,99491.59
2023-04-20T05:46:48.256Z,99496.47
2023-04-20T05:47:54.213Z,99494.69
2023-04-20T05:48:55.858Z,99499.84
2023-04-20T05:49:57.433Z,99492.91
2023-04-20T05:50:58.956Z,99497.72
2023-04-20T05:52:00.806Z,99496.78
2023-04-20T05:53:02.404Z,99498.56
2023-04-20T05:54:04.239Z,99494.06
2023-04-20T05:55:06.175Z,99494.25
2023-04-20T05:56:08.433Z,99491.75
2023-04-20T05:57:10.037Z,99495.59
2023-04-20T05:58:11.579Z,99494.47
2023-04-20T05:59:13.183Z,99494.66
2023-04-20T06:00:15.880Z,99493.38
2023-04-20T06:01:17.701Z,99493.19
2023-04-20T06:02:19.463Z,99495.59
2023-04-20T06:03:21.372Z,99500.59
2023-04-20T06:04:23.424Z,99493.78
2023-04-20T06:05:25.516Z,99502.19
2023-04-20T06:06:27.106Z,99501.31
2023-04-20T06:07:28.692Z,99503.13
2023-04-20T06:08:30.263Z,99510.25
2023-04-20T06:09:31.821Z,99508.47
2023-04-20T06:10:33.368Z,99505.03
2023-04-20T06:11:34.954Z,99510.13
2023-04-20T06:12:36.650Z,99505.13
2023-04-20T06:13:38.433Z,99513.94
2023-04-20T06:14:40.002Z,99519.97
2023-04-20T06:15:41.682Z,99513.81
2023-04-20T06:16:43.338Z,99521.47
2023-04-20T06:17:44.949Z,99517.81
2023-04-20T06:18:47.112Z,99517.44
2023-04-20T06:19:48.862Z,99516.31
2023-04-20T06:20:50.424Z,99517.97
2023-04-20T06:21:51.972Z,99519.75
2023-04-20T06:22:53.938Z,99520.69
2023-04-20T06:23:55.471Z,99513.34
2023-04-20T06:24:57.028Z,99521.72
2023-04-20T06:25:58.586Z,99514.56
2023-04-20T06:27:00.108Z,99511.94
2023-04-20T06:28:02.059Z,99508.50
2023-04-20T06:29:03.630Z,99513.63
2023-04-20T06:30:06.248Z,99516.03
2023-04-20T06:31:07.890Z,99508.38
2023-04-20T06:32:09.574Z,99514.25
2023-04-20T06:33:12.377Z,99510.56
2023-04-20T06:34:14.064Z,99519.06
2023-04-20T06:35:15.704Z,99520.41
2023-04-20T06:36:17.258Z,99518.94
2023-04-20T06:37:19.358Z,99518.69
2023-04-20T06:38:20.920Z,99515.34
2023-04-20T06:39:22.587Z,99516.94
2023-04-20T06:40:27.747Z,99514.94
2023-04-20T06:41:29.365Z,99519.94
2023-04-20T06:42:30.901Z,99514.47
2023-04-20T06:43:32.452Z,99518.75
2023-04-20T06:44:34.023Z,99518.66
2023-04-20T06:45:35.573Z,99519.91
2023-04-20T06:46:37.196Z,99514.25
2023-04-20T06:47:38.809Z,99523.66
2023-04-20T06:48:40.564Z,99514.97
2023-04-20T06:49:42.095Z,99513.50
2023-04-20T06:50:43.683Z,99516.97
2023-04-20T06:51:45.258Z,99510.56
2023-04-20T06:52:46.846Z,99520.41
2023-04-20T06:53:48.407Z,99530.47
2023-04-20T06:54:49.948Z,99519.22
2023-04-20T06:55:54.061Z,99526.88
2023-04-20T06:56:55.621Z,99523.31
2023-04-20T06:57:57.154Z,99522.22
2023-04-20T06:58:58.711Z,99517.84
2023-04-20T07:00:00.585Z,99523.34
2023-04-20T07:01:02.448Z,99516.56
2023-04-20T07:02:04.229Z,99519.34
2023-04-20T07:03:05.985Z,99523.19
2023-04-20T07:04:07.829Z,99519.84
2023-04-20T07:05:09.875Z,99519.16
2023-04-20T07:06:11.425Z,99517.75
2023-04-20T07:07:12.963Z,99517.25
2023-04-20T07:08:14.496Z,99520.84
2023-04-20T07:09:16.155Z,99515.34
2023-04-20T07:10:17.814Z,99522.53
2023-04-20T07:11:19.351Z,99514.88
2023-04-20T07:12:20.954Z,99521.81
2023-04-20T07:13:22.542Z,99518.31
2023-04-20T07:14:24.186Z,99516.03
2023-04-20T07:15:25.778Z,99519.13
2023-04-20T07:16:27.395Z,99514.31
2023-04-20T07:17:29.062Z,99517.72
2023-04-20T07:18:31.019Z,99516.75
2023-04-20T07:19:33.434Z,99520.56
2023-04-20T07:20:34.962Z,99525.81
2023-04-20T07:21:36.678Z,99523.41
2023-04-20T07:22:38.774Z,99519.88
2023-04-20T07:23:40.812Z,99529.13
2023-04-20T07:24:43.316Z,99521.09
2023-04-20T07:25:44.847Z,99526.09
2023-04-20T07:26:46.418Z,99519.19
2023-04-20T07:27:47.962Z,99532.53
2023-04-20T07:28:49.650Z,99533.09
2023-04-20T07:29:51.226Z,99526.19
2023-04-20T07:30:52.778Z,99532.19
2023-04-20T07:31:54.427Z,99536.00
2023-04-20T07:32:56.063Z,99531.78
2023-04-20T07:33:57.656Z,99538.56
2023-04-20T07:34:59.254Z,99534.75
2023-04-20T07:36:00.807Z,99541.09
2023-04-20T07:37:02.383Z,99535.59
2023-04-20T07:38:03.948Z,99528.69
2023-04-20T07:39:05.485Z,99534.78
2023-04-20T07:40:07.770Z,99530.22
2023-04-20T07:41:10.212Z,99535.50
2023-04-20T07:42:11.798Z,99535.59
2023-04-20T07:43:13.351Z,99527.84
2023-04-20T07:44:14.920Z,99530.22
2023-04-20T07:45:16.502Z,99533.13
2023-04-20T07:46:22.683Z,99530.66
2023-04-20T07:47:24.338Z,99530.16
2023-04-20T07:48:25.944Z,99530.09
2023-04-20T07:49:27.486Z,99534.00
2023-04-20T07:50:29.083Z,99529.63
2023-04-20T07:51:30.643Z,99530.06
2023-04-20T07:52:32.219Z,99530.28
2023-04-20T07:53:33.800Z,99537.75
2023-04-20T07:54:35.374Z,99538.69
2023-04-20T07:55:36.973Z,99532.72
2023-04-20T07:56:38.577Z,99537.97
2023-04-20T07:57:40.421Z,99539.22
2023-04-20T07:58:41.983Z,99537.34
2023-04-20T07:59:45.849Z,99536.78
2023-04-20T08:00:48.066Z,99542.56
2023-04-20T08:01:49.649Z,99545.19
2023-04-20T08:02:51.367Z,99541.88
2023-04-20T08:03:53.327Z,99534.59
2023-04-20T08:04:55.084Z,99544.53
2023-04-20T08:05:56.947Z,99541.66
2023-04-20T08:06:58.570Z,99537.47
2023-04-20T08:08:00.196Z,99539.13
2023-04-20T08:09:01.751Z,99534.72
2023-04-20T08:10:03.792Z,99536.28
2023-04-20T08:11:05.465Z,99538.06
2023-04-20T08:12:07.312Z,99539.34
2023-04-20T08:13:08.872Z,99539.13
2023-04-20T08:14:10.457Z,99539.03
2023-04-20T08:15:12.054Z,99545.84
2023-04-20T08:16:13.649Z,99538.97
2023-04-20T08:17:15.275Z,99548.53
2023-04-20T08:18:16.911Z,99538.88
2023-04-20T08:19:18.602Z,99538.88
2023-04-20T08:20:20.293Z,99537.91
2023-04-20T08:21:22.380Z,99541.13
2023-04-20T08:22:25.615Z,99536.88
2023-04-20T08:23:27.256Z,99537.94
2023-04-20T08:24:28.826Z,99531.47
2023-04-20T08:25:30.405Z,99540.78
2023-04-20T08:26:32.366Z,99543.78
2023-04-20T08:27:34.084Z,99541.75
2023-04-20T08:28:35.680Z,99533.06
2023-04-20T08:29:38.537Z,99534.63
2023-04-20T08:30:40.840Z,99544.53
2023-04-20T08:31:43.121Z,99538.19
2023-04-20T08:32:44.873Z,99532.16
2023-04-20T08:33:46.827Z,99530.59
2023-04-20T08:34:50.178Z,99531.88
2023-04-20T08:35:51.844Z,99536.56
2023-04-20T08:36:53.427Z,99535.06
2023-04-20T08:37:55.038Z,99534.69
2023-04-20T08:39:08.296Z,99535.50
2023-04-20T08:40:10.262Z,99537.97
2023-04-20T08:41:12.122Z,99530.78
2023-04-20T08:42:13.772Z,99526.97
2023-04-20T08:43:15.415Z,99533.44
2023-04-20T08:44:17.172Z,99531.94
2023-04-20T08:45:18.894Z,99536.00
2023-04-20T08:46:20.816Z,99526.16
2023-04-20T08:47:22.548Z,99531.03
2023-04-20T08:48:25.754Z,99531.16
2023-04-20T08:49:28.329Z,99527.59
2023-04-20T08:50:30.226Z,99522.75
2023-04-20T08:51:31.953Z,99522.19
2023-04-20T08:52:33.546Z,99525.81
2023-04-20T08:53:35.129Z,99534.91
2023-04-20T08:54:42.844Z,99533.41
2023-04-20T08:55:51.111Z,99525.00
2023-04-20T08:56:52.728Z,99529.88
2023-04-20T08:57:54.288Z,99524.78
2023-04-20T08:58:57.472Z,99522.13
2023-04-20T08:59:59.101Z,99516.63
2023-04-20T09:01:00.811Z,99523.03
2023-04-20T09:02:13.187Z,99527.22
2023-04-20T09:03:15.299Z,99521.50
2023-04-20T09:04:17.445Z,99527.22
2023-04-20T09:05:30.373Z,99527.78
2023-04-20T09:06:31.975Z,99529.84
2023-04-20T09:07:36.764Z,99528.63
2023-04-20T09:08:40.575Z,99531.69
2023-04-20T09:09:42.267Z,99528.91
2023-04-20T09:10:44.901Z,99533.50
2023-04-20T09:11:47.063Z,99536.00
2023-04-20T09:12:48.634Z,99532.22
2023-04-20T09:13:59.207Z,99527.91
2023-04-20T09:15:00.786Z,99523.16
2023-04-20T09:16:12.866Z,99529.00
2023-04-20T09:17:16.295Z,99530.50
2023-04-20T09:18:17.863Z,99528.28
2023-04-20T09:19:26.902Z,99528.72
2023-04-20T09:20:32.509Z,99532.72
2023-04-20T09:21:34.107Z,99535.09
2023-04-20T09:22:36.975Z,99536.78
2023-04-20T09:23:38.549Z,99530.13
2023-04-20T09:24:40.486Z,99535.41
2023-04-20T09:25:42.729Z,99533.75
2023-04-20T09:26:44.280Z,99531.13
2023-04-20T09:27:59.014Z,99534.19
2023-04-20T09:29:04.706Z,99532.78
2023-04-20T09:30:07.008Z,99528.88
2023-04-20T09:31:18.256Z,99535.44
2023-04-20T09:32:23.474Z,99530.59
2023-04-20T09:33:28.873Z,99525.00
2023-04-20T09:34:30.441Z,99530.41
2023-04-20T09:35:32.014Z,99528.19
2023-04-20T09:36:40.425Z,99525.13
2023-04-20T09:37:48.917Z,99528.75
2023-04-20T09:39:02.056Z,99535.00
2023-04-20T09:40:05.870Z,99528.88
2023-04-20T09:41:07.561Z,99532.38
2023-04-20T09:42:12.211Z,99531.81
2023-04-20T09:43:18.863Z,99528.06
2023-04-20T09:44:20.428Z,99531.09
2023-04-20T09:45:22.686Z,99528.06
2023-04-20T09:46:28.191Z,99533.75
2023-04-20T09:47:29.880Z,99531.41
2023-04-20T09:48:32.230Z,99527.34
2023-04-20T09:49:34.464Z,99528.59
2023-04-20T09:50:48.075Z,99521.94
2023-04-20T09:51:51.313Z,99522.66
2023-04-20T09:52:54.011Z,99522.66
2023-04-20T09:53:56.902Z,99516.66
2023-04-20T09:54:58.731Z,99518.88
2023-04-20T09:56:01.829Z,99520.56
2023-04-20T09:57:03.743Z,99524.16
2023-04-20T09:58:05.348Z,99507.09
2023-04-20T09:59:07.414Z,99516.00
2023-04-20T10:00:09.522Z,99518.59
2023-04-20T10:01:11.553Z,99513.22
2023-04-20T10:02:14.259Z,99511.81
2023-04-20T10:03:18.413Z,99514.59
2023-04-20T10:04:20.544Z,99509.72
2023-04-20T10:05:33.789Z,99515.97
2023-04-20T10:06:35.876Z,99510.53
2023-04-20T10:07:37.521Z,99515.97
2023-04-20T10:08:42.099Z,99516.22
2023-04-20T10:09:43.753Z,99505.50
2023-04-20T10:10:48.010Z,99510.78
2023-04-20T10:11:53.331Z,99515.97
2023-04-20T10:12:58.233Z,99513.06
2023-04-20T10:14:02.478Z,99515.69
2023-04-20T10:15:04.320Z,99512.78
2023-04-20T10:16:17.686Z,99503.31
2023-04-20T10:17:30.800Z,99499.09
2023-04-20T10:18:32.482Z,99510.91
2023-04-20T10:19:41.755Z,99506.81
2023-04-20T10:20:43.390Z,99501.72
2023-04-20T10:21:50.097Z,99495.03
2023-04-20T10:22:52.928Z,99496.25
2023-04-20T10:23:54.828Z,99502.63
2023-04-20T10:24:56.479Z,99501.22
2023-04-20T10:25:59.502Z,99504.72
2023-04-20T10:27:01.176Z,99504.13
2023-04-20T10:28:05.208Z,99499.66
2023-04-20T10:29:06.855Z,99505.34
2023-04-20T10:30:10.669Z,99492.84
2023-04-20T10:31:13.701Z,99490.75
2023-04-20T10:32:29.178Z,99488.19
2023-04-20T10:33:30.918Z,99489.88
2023-04-20T10:34:34.355Z,99493.38
2023-04-20T10:35:45.292Z,99491.63
2023-04-20T10:36:47.507Z,99486.94
2023-04-20T10:37:52.135Z,99487.91
2023-04-20T10:38:54.015Z,99490.47
2023-04-20T10:39:55.635Z,99496.22
2023-04-20T10:40:57.896Z,99492.06
2023-04-20T10:41:59.468Z,99488.84
2023-04-20T10:43:01.131Z,99485.78
2023-04-20T10:44:08.906Z,99489.09
2023-04-20T10:45:10.787Z,99482.81
2023-04-20T10:46:18.445Z,99486.22
2023-04-20T10:47:30.711Z,99487.47
2023-04-20T10:48:35.118Z,99487.91
2023-04-20T10:49:36.709Z,99485.03
2023-04-20T10:50:38.318Z,99482.69
2023-04-20T10:51:49.817Z,99485.34
2023-04-20T10:52:51.447Z,99484.91
2023-04-20T10:54:06.060Z,99489.88
2023-04-20T10:55:19.423Z,99482.91
2023-04-20T10:56:21.005Z,99467.47
2023-04-20T10:57:22.618Z,99476.06
2023-04-20T10:58:24.999Z,99466.06
2023-04-20T10:59:29.147Z,99474.69
2023-04-20T11:00:31.152Z,99471.75
2023-04-20T11:01:33.028Z,99468.53
2023-04-20T11:02:35.050Z,99461.06
2023-04-20T11:03:37.254Z,99461.19
2023-04-20T11:04:39.321Z,99459.44
2023-04-20T11:14:09.527Z,99443.06
2023-04-20T11:15:11.376Z,99457.69
2023-04-20T11:16:14.491Z,99455.16
2023-04-20T11:17:16.544Z,99451.28
2023-04-20T11:18:22.269Z,99455.75
2023-04-20T11:19:37.070Z,99438.53
2023-04-20T11:20:55.551Z,99447.00
2023-04-20T11:21:57.724Z,99454.53
2023-04-20T11:22:59.393Z,99439.44
2023-04-20T11:24:01.334Z,99449.72
2023-04-20T11:25:08.555Z,99445.41
2023-04-20T11:26:11.943Z,99451.53
2023-04-20T11:27:20.965Z,99450.16
2023-04-20T11:28:23.930Z,99456.41
2023-04-20T11:29:39.710Z,99454.50
2023-04-20T11:30:42.343Z,99458.25
2023-04-20T11:31:51.656Z,99445.91
2023-04-20T11:32:54.731Z,99452.16
2023-04-20T11:33:56.488Z,99465.09
2023-04-20T11:35:07.392Z,99461.19
2023-04-20T11:36:29.319Z,99456.88
2023-04-20T11:37:31.319Z,99453.56
2023-04-20T11:38:34.793Z,99461.88
2023-04-20T11:39:38.839Z,99461.19
2023-04-20T11:40:41.403Z,99452.97
2023-04-20T11:43:01.252Z,99460.16
2023-04-20T11:45:22.514Z,99455.97
2023-04-20T11:46:26.688Z,99449.72
2023-04-20T11:47:30.142Z,99452.19
2023-04-20T11:48:34.912Z,99449.53
2023-04-20T11:49:37.556Z,99454.16
2023-04-20T11:50:42.561Z,99452.88
2023-04-20T11:54:18.398Z,99446.00
2023-04-20T11:55:20.097Z,99449.13
2023-04-20T11:56:21.670Z,99435.34
2023-04-20T11:57:23.529Z,99446.09
2023-04-20T11:58:25.088Z,99444.00
2023-04-20T11:59:27.021Z,99449.09
2023-04-20T12:00:28.680Z,99450.31
2023-04-20T12:01:30.586Z,99441.25
2023-04-20T12:02:32.298Z,99435.75
2023-04-20T12:03:34.122Z,99439.97
2023-04-20T12:04:36.243Z,99438.78
2023-04-20T12:05:40.669Z,99435.00
2023-04-20T12:06:42.232Z,99440.06
2023-04-20T12:07:43.791Z,99428.88
2023-04-20T12:08:45.848Z,99434.09
2023-04-20T12:09:47.622Z,99440.91
2023-04-20T12:10:49.258Z,99434.97
2023-04-20T12:11:50.893Z,99431.47
2023-04-20T12:12:52.719Z,99430.97
2023-04-20T12:13:54.253Z,99430.81
2023-04-20T12:14:55.849Z,99431.13
2023-04-20T12:15:57.435Z,99429.81
2023-04-20T12:16:59.735Z,99426.72
2023-04-20T12:18:01.325Z,99428.00
2023-04-20T12:19:02.975Z,99425.91
2023-04-20T12:20:05.028Z,99429.00
2023-04-20T12:21:06.881Z,99427.47
2023-04-20T12:22:08.435Z,99426.44
2023-04-20T12:23:10.128Z,99432.13
2023-04-20T12:24:11.689Z,99426.81
2023-04-20T12:25:13.286Z,99423.66
2023-04-20T12:26:15.048Z,99422.16
2023-04-20T12:27:16.616Z,99435.44
2023-04-20T12:28:18.238Z,99428.13
2023-04-20T12:29:20.032Z,99422.59
2023-04-20T12:30:21.887Z,99423.59
2023-04-20T12:31:25.205Z,99418.81
2023-04-20T12:32:28.215Z,99413.59
2023-04-20T12:33:29.846Z,99424.72
2023-04-20T12:34:31.649Z,99418.31
2023-04-20T12:35:33.344Z,99421.44
2023-04-20T12:36:35.307Z,99417.25
2023-04-20T12:37:37.028Z,99422.75
2023-04-20T12:38:38.884Z,99417.91
2023-04-20T12:39:40.513Z,99419.03
2023-04-20T12:40:42.220Z,99422.91
2023-04-20T12:41:43.826Z,99419.75
2023-04-20T12:42:45.516Z,99419.25
2023-04-20T12:43:47.106Z,99425.94
2023-04-20T12:44:48.965Z,99422.00
2023-04-20T12:45:50.537Z,99417.81
2023-04-20T12:46:52.135Z,99417.22
2023-04-20T12:47:56.197Z,99423.59
2023-04-20T12:48:58.980Z,99413.50
2023-04-20T12:51:21.071Z,99410.16
2023-04-20T12:52:22.825Z,99408.34
2023-04-20T12:53:24.580Z,99406.19
2023-04-20T13:15:25.379Z,99398.94
2023-04-20T13:16:34.251Z,99394.63
2023-04-20T13:20:16.709Z,99398.81
2023-04-20T13:40:54.485Z,99391.03
2023-04-20T13:41:56.085Z,99383.56
2023-04-20T13:42:57.923Z,99388.59
2023-04-20T13:55:05.295Z,99395.25
2023-04-20T13:56:07.201Z,99393.91
2023-04-20T13:57:08.886Z,99390.41
2023-04-20T14:09:06.596Z,99393.00
2023-04-20T14:26:55.350Z,99373.06
2023-04-20T14:27:57.099Z,99381.88
2023-04-20T14:28:58.946Z,99370.94
2023-04-20T14:30:00.688Z,99373.94
2023-04-20T14:31:02.886Z,99376.75
2023-04-20T14:32:04.546Z,99378.91
2023-04-20T14:33:06.507Z,99364.66
2023-04-20T14:34:08.494Z,99372.75
2023-04-20T14:35:10.048Z,99365.63
2023-04-20T14:36:11.756Z,99374.72
2023-04-20T14:37:13.553Z,99369.22
2023-04-20T14:38:16.746Z,99367.38
2023-04-20T14:39:30.437Z,99373.16
2023-04-20T14:40:35.761Z,99366.53
2023-04-20T14:41:38.293Z,99372.63
2023-04-20T14:46:31.079Z,99367.84